sensor_id;sensor_type;location;lat;lon;timestamp;P1;durP1;ratioP1;P2;durP2;ratioP2
9827;SDS011;4953;48.952;9.442;2022-08-27T04:02:00;82.50;;;47.93;;
9827;SDS011;4953;48.952;9.442;2022-08-27T04:04:28;76.23;;;48.57;;
9827;SDS011;4953;48.952;9.442;2022-08-27T04:06:56;79.67;;;49.97;;
9827;SDS011;4953;48.952;9.442;2022-08-27T04:09:23;83.53;;;48.60;;
9827;SDS011;4953;48.952;9.442;2022-08-27T04:11:50;81.73;;;48.53;;
9827;SDS011;4953;48.952;9.442;2022-08-27T04:14:17;75.53;;;48.03;;
9827;SDS011;4953;48.952;9.442;2022-08-27T04:16:44;88.23;;;51.50;;
9827;SDS011;4953;48.952;9.442;2022-08-27T04:19:13;75.63;;;47.27;;
9827;SDS011;4953;48.952;9.442;2022-08-27T04:21:40;77.93;;;48.17;;
9827;SDS011;4953;48.952;9.442;2022-08-27T04:24:07;79.70;;;46.97;;
9827;SDS011;4953;48.952;9.442;2022-08-27T04:26:37;84.23;;;49.47;;
9827;SDS011;4953;48.952;9.442;2022-08-27T04:29:06;83.37;;;48.93;;
9827;SDS011;4953;48.952;9.442;2022-08-27T04:31:33;75.10;;;47.10;;
9827;SDS011;4953;48.952;9.442;2022-08-27T04:34:00;83.77;;;49.67;;
9827;SDS011;4953;48.952;9.442;2022-08-27T04:36:28;77.03;;;45.33;;
9827;SDS011;4953;48.952;9.442;2022-08-27T04:38:55;80.93;;;49.20;;
9827;SDS011;4953;48.952;9.442;2022-08-27T04:41:21;78.30;;;48.20;;
9827;SDS011;4953;48.952;9.442;2022-08-27T04:43:51;74.00;;;46.13;;
9827;SDS011;4953;48.952;9.442;2022-08-27T04:46:20;74.40;;;45.33;;
9827;SDS011;4953;48.952;9.442;2022-08-27T04:48:48;78.93;;;45.63;;
9827;SDS011;4953;48.952;9.442;2022-08-27T04:51:16;74.20;;;44.70;;
9827;SDS011;4953;48.952;9.442;2022-08-27T04:53:44;77.50;;;45.27;;
9827;SDS011;4953;48.952;9.442;2022-08-27T04:56:11;65.50;;;43.10;;
9827;SDS011;4953;48.952;9.442;2022-08-27T04:58:40;71.70;;;44.00;;
9827;SDS011;4953;48.952;9.442;2022-08-27T05:01:07;63.90;;;41.80;;
9827;SDS011;4953;48.952;9.442;2022-08-27T05:03:34;80.23;;;44.80;;
9827;SDS011;4953;48.952;9.442;2022-08-27T05:06:03;69.53;;;42.80;;
9827;SDS011;4953;48.952;9.442;2022-08-27T05:08:31;71.07;;;43.33;;
9827;SDS011;4953;48.952;9.442;2022-08-27T05:11:00;68.10;;;43.80;;
9827;SDS011;4953;48.952;9.442;2022-08-27T05:13:27;73.10;;;43.83;;
9827;SDS011;4953;48.952;9.442;2022-08-27T05:15:57;70.90;;;44.60;;
9827;SDS011;4953;48.952;9.442;2022-08-27T05:18:25;75.33;;;44.00;;
9827;SDS011;4953;48.952;9.442;2022-08-27T05:20:52;71.10;;;43.10;;
9827;SDS011;4953;48.952;9.442;2022-08-27T05:23:19;82.00;;;44.37;;
9827;SDS011;4953;48.952;9.442;2022-08-27T05:25:47;75.37;;;45.17;;
9827;SDS011;4953;48.952;9.442;2022-08-27T05:28:16;74.47;;;45.40;;
9827;SDS011;4953;48.952;9.442;2022-08-27T05:30:46;75.43;;;44.13;;
9827;SDS011;4953;48.952;9.442;2022-08-27T05:33:16;72.70;;;45.20;;
9827;SDS011;4953;48.952;9.442;2022-08-27T05:35:46;69.80;;;43.20;;
9827;SDS011;4953;48.952;9.442;2022-08-27T05:38:14;70.27;;;46.10;;
9827;SDS011;4953;48.952;9.442;2022-08-27T05:40:42;79.10;;;45.80;;
9827;SDS011;4953;48.952;9.442;2022-08-27T05:43:12;75.60;;;46.33;;
9827;SDS011;4953;48.952;9.442;2022-08-27T05:45:41;75.33;;;44.93;;
9827;SDS011;4953;48.952;9.442;2022-08-27T05:48:09;79.07;;;46.27;;
9827;SDS011;4953;48.952;9.442;2022-08-27T05:50:37;74.63;;;46.63;;
9827;SDS011;4953;48.952;9.442;2022-08-27T05:53:04;72.70;;;44.80;;
9827;SDS011;4953;48.952;9.442;2022-08-27T05:55:34;70.60;;;43.37;;
9827;SDS011;4953;48.952;9.442;2022-08-27T05:58:03;72.03;;;44.30;;
9827;SDS011;4953;48.952;9.442;2022-08-27T06:00:30;82.57;;;47.00;;
9827;SDS011;4953;48.952;9.442;2022-08-27T06:03:16;79.60;;;46.60;;
9827;SDS011;4953;48.952;9.442;2022-08-27T06:05:43;74.27;;;45.87;;
9827;SDS011;4953;48.952;9.442;2022-08-27T06:08:10;86.50;;;48.70;;
9827;SDS011;4953;48.952;9.442;2022-08-27T06:10:38;82.23;;;46.90;;
9827;SDS011;4953;48.952;9.442;2022-08-27T06:13:06;84.00;;;48.37;;
9827;SDS011;4953;48.952;9.442;2022-08-27T06:15:33;85.13;;;47.23;;
9827;SDS011;4953;48.952;9.442;2022-08-27T06:18:00;72.93;;;45.27;;
9827;SDS011;4953;48.952;9.442;2022-08-27T06:20:30;82.13;;;47.00;;
9827;SDS011;4953;48.952;9.442;2022-08-27T06:22:57;82.50;;;47.13;;
9827;SDS011;4953;48.952;9.442;2022-08-27T06:25:27;76.20;;;46.63;;
9827;SDS011;4953;48.952;9.442;2022-08-27T06:27:56;76.23;;;45.63;;
9827;SDS011;4953;48.952;9.442;2022-08-27T06:30:23;73.97;;;46.57;;
9827;SDS011;4953;48.952;9.442;2022-08-27T06:32:50;76.83;;;47.00;;
9827;SDS011;4953;48.952;9.442;2022-08-27T06:35:16;85.60;;;50.17;;
9827;SDS011;4953;48.952;9.442;2022-08-27T06:37:45;83.73;;;49.87;;
9827;SDS011;4953;48.952;9.442;2022-08-27T06:40:12;72.77;;;46.70;;
9827;SDS011;4953;48.952;9.442;2022-08-27T06:42:39;82.70;;;50.03;;
9827;SDS011;4953;48.952;9.442;2022-08-27T06:45:06;79.90;;;48.27;;
9827;SDS011;4953;48.952;9.442;2022-08-27T06:47:34;90.40;;;51.07;;
9827;SDS011;4953;48.952;9.442;2022-08-27T06:50:01;83.87;;;50.00;;
9827;SDS011;4953;48.952;9.442;2022-08-27T06:52:28;80.13;;;49.87;;
9827;SDS011;4953;48.952;9.442;2022-08-27T06:54:57;83.13;;;51.57;;
9827;SDS011;4953;48.952;9.442;2022-08-27T06:57:23;75.87;;;48.27;;
9827;SDS011;4953;48.952;9.442;2022-08-27T06:59:50;79.97;;;49.90;;
9827;SDS011;4953;48.952;9.442;2022-08-27T07:02:18;90.40;;;50.53;;
9827;SDS011;4953;48.952;9.442;2022-08-27T07:04:44;87.27;;;50.43;;
9827;SDS011;4953;48.952;9.442;2022-08-27T07:07:12;82.23;;;49.57;;
9827;SDS011;4953;48.952;9.442;2022-08-27T07:09:39;74.47;;;48.53;;
9827;SDS011;4953;48.952;9.442;2022-08-27T07:12:07;84.17;;;53.90;;
9827;SDS011;4953;48.952;9.442;2022-08-27T07:14:34;71.90;;;47.57;;
9827;SDS011;4953;48.952;9.442;2022-08-27T07:17:01;80.67;;;49.70;;
9827;SDS011;4953;48.952;9.442;2022-08-27T07:19:30;85.43;;;49.63;;
9827;SDS011;4953;48.952;9.442;2022-08-27T07:21:57;80.60;;;49.23;;
9827;SDS011;4953;48.952;9.442;2022-08-27T07:24:24;80.60;;;50.90;;
9827;SDS011;4953;48.952;9.442;2022-08-27T07:26:51;72.10;;;47.03;;
9827;SDS011;4953;48.952;9.442;2022-08-27T07:29:22;74.20;;;50.03;;
9827;SDS011;4953;48.952;9.442;2022-08-27T07:31:49;80.17;;;49.40;;
9827;SDS011;4953;48.952;9.442;2022-08-27T07:34:16;72.87;;;48.37;;
9827;SDS011;4953;48.952;9.442;2022-08-27T07:36:42;73.80;;;49.30;;
9827;SDS011;4953;48.952;9.442;2022-08-27T07:39:09;89.57;;;47.97;;
9827;SDS011;4953;48.952;9.442;2022-08-27T07:41:37;84.37;;;50.90;;
9827;SDS011;4953;48.952;9.442;2022-08-27T07:44:18;89.90;;;50.20;;
9827;SDS011;4953;48.952;9.442;2022-08-27T07:46:53;92.87;;;53.17;;
9827;SDS011;4953;48.952;9.442;2022-08-27T07:49:25;83.83;;;50.10;;
9827;SDS011;4953;48.952;9.442;2022-08-27T07:51:53;75.23;;;50.37;;
9827;SDS011;4953;48.952;9.442;2022-08-27T07:54:20;82.83;;;50.23;;
9827;SDS011;4953;48.952;9.442;2022-08-27T07:56:48;74.00;;;46.70;;
9827;SDS011;4953;48.952;9.442;2022-08-27T07:59:14;79.20;;;50.13;;
9827;SDS011;4953;48.952;9.442;2022-08-27T08:01:43;84.87;;;51.07;;
9827;SDS011;4953;48.952;9.442;2022-08-27T08:04:14;82.13;;;52.67;;
9827;SDS011;4953;48.952;9.442;2022-08-27T08:06:41;88.37;;;51.10;;
9827;SDS011;4953;48.952;9.442;2022-08-27T08:09:08;80.63;;;50.10;;
9827;SDS011;4953;48.952;9.442;2022-08-27T08:11:34;86.30;;;50.70;;
9827;SDS011;4953;48.952;9.442;2022-08-27T08:14:01;81.40;;;50.20;;
9827;SDS011;4953;48.952;9.442;2022-08-27T08:16:28;76.97;;;48.40;;
9827;SDS011;4953;48.952;9.442;2022-08-27T08:18:55;81.68;;;54.08;;
9827;SDS011;4953;48.952;9.442;2022-08-27T08:21:25;74.77;;;48.83;;
9827;SDS011;4953;48.952;9.442;2022-08-27T08:23:52;78.53;;;49.50;;
9827;SDS011;4953;48.952;9.442;2022-08-27T08:26:19;81.53;;;49.73;;
9827;SDS011;4953;48.952;9.442;2022-08-27T08:28:46;82.57;;;47.90;;
9827;SDS011;4953;48.952;9.442;2022-08-27T08:31:12;73.20;;;46.17;;
9827;SDS011;4953;48.952;9.442;2022-08-27T08:33:39;80.03;;;44.93;;
9827;SDS011;4953;48.952;9.442;2022-08-27T08:36:07;70.53;;;45.33;;
9827;SDS011;4953;48.952;9.442;2022-08-27T08:38:37;73.37;;;46.90;;
9827;SDS011;4953;48.952;9.442;2022-08-27T08:41:05;67.90;;;42.70;;
9827;SDS011;4953;48.952;9.442;2022-08-27T08:43:49;57.80;;;39.27;;
9827;SDS011;4953;48.952;9.442;2022-08-27T08:46:16;56.07;;;37.83;;
9827;SDS011;4953;48.952;9.442;2022-08-27T08:48:50;51.30;;;35.43;;
9827;SDS011;4953;48.952;9.442;2022-08-27T08:51:21;49.73;;;35.60;;
9827;SDS011;4953;48.952;9.442;2022-08-27T08:53:57;47.93;;;35.00;;
9827;SDS011;4953;48.952;9.442;2022-08-27T08:56:29;58.93;;;36.23;;
9827;SDS011;4953;48.952;9.442;2022-08-27T08:59:02;51.53;;;35.63;;
9827;SDS011;4953;48.952;9.442;2022-08-27T09:01:34;43.77;;;34.13;;
9827;SDS011;4953;48.952;9.442;2022-08-27T09:04:02;45.27;;;33.60;;
9827;SDS011;4953;48.952;9.442;2022-08-27T09:06:32;49.30;;;35.70;;
9827;SDS011;4953;48.952;9.442;2022-08-27T09:09:10;46.13;;;34.80;;
9827;SDS011;4953;48.952;9.442;2022-08-27T09:11:46;45.80;;;33.90;;
9827;SDS011;4953;48.952;9.442;2022-08-27T09:14:23;40.40;;;31.20;;
9827;SDS011;4953;48.952;9.442;2022-08-27T09:16:58;41.10;;;32.10;;
9827;SDS011;4953;48.952;9.442;2022-08-27T09:19:25;37.40;;;28.00;;
9827;SDS011;4953;48.952;9.442;2022-08-27T09:21:55;39.27;;;29.90;;
9827;SDS011;4953;48.952;9.442;2022-08-27T09:24:31;39.07;;;29.53;;
9827;SDS011;4953;48.952;9.442;2022-08-27T09:27:06;38.80;;;29.50;;
9827;SDS011;4953;48.952;9.442;2022-08-27T09:29:36;48.07;;;35.03;;
9827;SDS011;4953;48.952;9.442;2022-08-27T09:32:13;45.90;;;35.90;;
9827;SDS011;4953;48.952;9.442;2022-08-27T09:34:42;54.53;;;36.17;;
9827;SDS011;4953;48.952;9.442;2022-08-27T09:37:16;56.63;;;37.00;;
9827;SDS011;4953;48.952;9.442;2022-08-27T09:39:51;51.43;;;36.47;;
9827;SDS011;4953;48.952;9.442;2022-08-27T09:42:24;46.63;;;36.97;;
9827;SDS011;4953;48.952;9.442;2022-08-27T09:44:54;51.37;;;37.07;;
9827;SDS011;4953;48.952;9.442;2022-08-27T09:47:22;45.63;;;35.20;;
9827;SDS011;4953;48.952;9.442;2022-08-27T09:49:59;46.00;;;35.13;;
9827;SDS011;4953;48.952;9.442;2022-08-27T09:52:29;45.80;;;35.93;;
9827;SDS011;4953;48.952;9.442;2022-08-27T09:55:02;50.80;;;37.90;;
9827;SDS011;4953;48.952;9.442;2022-08-27T09:57:31;47.30;;;35.77;;
9827;SDS011;4953;48.952;9.442;2022-08-27T10:00:00;37.30;;;29.60;;
9827;SDS011;4953;48.952;9.442;2022-08-27T10:02:33;39.10;;;32.83;;
9827;SDS011;4953;48.952;9.442;2022-08-27T10:05:01;42.03;;;32.43;;
9827;SDS011;4953;48.952;9.442;2022-08-27T10:07:40;41.20;;;31.60;;
9827;SDS011;4953;48.952;9.442;2022-08-27T10:10:18;40.63;;;30.80;;
9827;SDS011;4953;48.952;9.442;2022-08-27T10:12:51;33.00;;;27.30;;
9827;SDS011;4953;48.952;9.442;2022-08-27T10:15:22;37.40;;;26.37;;
9827;SDS011;4953;48.952;9.442;2022-08-27T10:17:59;29.53;;;24.33;;
9827;SDS011;4953;48.952;9.442;2022-08-27T10:20:33;32.95;;;26.65;;
9827;SDS011;4953;48.952;9.442;2022-08-27T10:23:10;30.67;;;22.67;;
9827;SDS011;4953;48.952;9.442;2022-08-27T10:25:48;29.97;;;22.93;;
9827;SDS011;4953;48.952;9.442;2022-08-27T10:28:25;26.87;;;22.07;;
9827;SDS011;4953;48.952;9.442;2022-08-27T10:31:08;27.67;;;22.17;;
9827;SDS011;4953;48.952;9.442;2022-08-27T10:33:49;27.07;;;22.30;;
9827;SDS011;4953;48.952;9.442;2022-08-27T10:36:25;32.93;;;24.30;;
9827;SDS011;4953;48.952;9.442;2022-08-27T10:39:02;25.67;;;22.73;;
9827;SDS011;4953;48.952;9.442;2022-08-27T10:41:39;27.90;;;22.30;;
9827;SDS011;4953;48.952;9.442;2022-08-27T10:47:09;24.90;;;19.50;;
9827;SDS011;4953;48.952;9.442;2022-08-27T10:49:44;24.20;;;19.73;;
9827;SDS011;4953;48.952;9.442;2022-08-27T10:52:21;25.83;;;19.60;;
9827;SDS011;4953;48.952;9.442;2022-08-27T10:54:55;21.27;;;18.90;;
9827;SDS011;4953;48.952;9.442;2022-08-27T10:57:28;19.47;;;17.30;;
9827;SDS011;4953;48.952;9.442;2022-08-27T11:00:11;19.87;;;17.60;;
9827;SDS011;4953;48.952;9.442;2022-08-27T11:02:41;23.27;;;19.70;;
9827;SDS011;4953;48.952;9.442;2022-08-27T11:05:16;18.53;;;16.50;;
9827;SDS011;4953;48.952;9.442;2022-08-27T11:07:45;22.83;;;17.13;;
9827;SDS011;4953;48.952;9.442;2022-08-27T11:10:20;24.13;;;16.77;;
9827;SDS011;4953;48.952;9.442;2022-08-27T11:12:55;20.17;;;17.30;;
9827;SDS011;4953;48.952;9.442;2022-08-27T11:15:24;19.50;;;15.70;;
9827;SDS011;4953;48.952;9.442;2022-08-27T11:17:56;18.93;;;16.10;;
9827;SDS011;4953;48.952;9.442;2022-08-27T11:20:28;24.00;;;18.57;;
9827;SDS011;4953;48.952;9.442;2022-08-27T11:23:00;23.77;;;18.03;;
9827;SDS011;4953;48.952;9.442;2022-08-27T11:25:37;22.50;;;17.50;;
9827;SDS011;4953;48.952;9.442;2022-08-27T11:28:12;19.93;;;17.43;;
9827;SDS011;4953;48.952;9.442;2022-08-27T11:30:42;22.23;;;18.37;;
9827;SDS011;4953;48.952;9.442;2022-08-27T11:33:22;25.50;;;18.87;;
9827;SDS011;4953;48.952;9.442;2022-08-27T11:36:04;19.77;;;16.97;;
9827;SDS011;4953;48.952;9.442;2022-08-27T11:38:44;22.73;;;18.63;;
9827;SDS011;4953;48.952;9.442;2022-08-27T11:44:27;23.80;;;19.80;;
9827;SDS011;4953;48.952;9.442;2022-08-27T11:46:55;34.43;;;27.83;;
9827;SDS011;4953;48.952;9.442;2022-08-27T11:49:24;36.20;;;28.37;;
9827;SDS011;4953;48.952;9.442;2022-08-27T11:51:57;38.90;;;31.23;;
9827;SDS011;4953;48.952;9.442;2022-08-27T11:54:27;37.50;;;29.50;;
9827;SDS011;4953;48.952;9.442;2022-08-27T11:56:56;39.37;;;31.27;;
9827;SDS011;4953;48.952;9.442;2022-08-27T11:59:29;37.83;;;28.60;;
9827;SDS011;4953;48.952;9.442;2022-08-27T12:02:09;26.43;;;21.80;;
9827;SDS011;4953;48.952;9.442;2022-08-27T12:04:44;28.40;;;21.10;;
9827;SDS011;4953;48.952;9.442;2022-08-27T12:07:22;23.73;;;17.90;;
9827;SDS011;4953;48.952;9.442;2022-08-27T12:09:57;24.07;;;17.87;;
9827;SDS011;4953;48.952;9.442;2022-08-27T12:12:33;23.83;;;18.93;;
9827;SDS011;4953;48.952;9.442;2022-08-27T12:15:09;25.33;;;19.10;;
9827;SDS011;4953;48.952;9.442;2022-08-27T12:17:45;25.77;;;18.30;;
9827;SDS011;4953;48.952;9.442;2022-08-27T12:20:21;26.20;;;19.53;;
9827;SDS011;4953;48.952;9.442;2022-08-27T12:22:56;33.60;;;26.53;;
9827;SDS011;4953;48.952;9.442;2022-08-27T12:25:53;33.90;;;26.57;;
9827;SDS011;4953;48.952;9.442;2022-08-27T12:28:23;30.43;;;26.97;;
9827;SDS011;4953;48.952;9.442;2022-08-27T12:30:53;26.07;;;20.57;;
9827;SDS011;4953;48.952;9.442;2022-08-27T12:33:27;27.20;;;20.40;;
9827;SDS011;4953;48.952;9.442;2022-08-27T12:36:02;23.60;;;21.13;;
9827;SDS011;4953;48.952;9.442;2022-08-27T12:38:36;23.13;;;20.20;;
9827;SDS011;4953;48.952;9.442;2022-08-27T12:41:09;24.27;;;19.97;;
9827;SDS011;4953;48.952;9.442;2022-08-27T12:43:36;34.00;;;21.13;;
9827;SDS011;4953;48.952;9.442;2022-08-27T12:46:10;22.67;;;19.63;;
9827;SDS011;4953;48.952;9.442;2022-08-27T12:48:41;22.83;;;19.20;;
9827;SDS011;4953;48.952;9.442;2022-08-27T12:51:11;25.37;;;19.47;;
9827;SDS011;4953;48.952;9.442;2022-08-27T12:53:41;22.63;;;19.37;;
9827;SDS011;4953;48.952;9.442;2022-08-27T12:56:17;25.13;;;20.67;;
9827;SDS011;4953;48.952;9.442;2022-08-27T12:58:58;32.70;;;21.83;;
9827;SDS011;4953;48.952;9.442;2022-08-27T13:01:41;27.13;;;21.20;;
9827;SDS011;4953;48.952;9.442;2022-08-27T13:04:20;27.20;;;21.63;;
9827;SDS011;4953;48.952;9.442;2022-08-27T13:06:49;33.03;;;25.07;;
9827;SDS011;4953;48.952;9.442;2022-08-27T13:09:24;35.50;;;26.27;;
9827;SDS011;4953;48.952;9.442;2022-08-27T13:11:53;32.17;;;25.93;;
9827;SDS011;4953;48.952;9.442;2022-08-27T13:14:21;57.17;;;28.37;;
9827;SDS011;4953;48.952;9.442;2022-08-27T13:16:53;36.53;;;27.13;;
9827;SDS011;4953;48.952;9.442;2022-08-27T13:19:24;24.40;;;18.97;;
9827;SDS011;4953;48.952;9.442;2022-08-27T13:21:54;26.13;;;21.60;;
9827;SDS011;4953;48.952;9.442;2022-08-27T13:24:25;31.33;;;24.50;;
9827;SDS011;4953;48.952;9.442;2022-08-27T13:26:55;37.67;;;29.33;;
9827;SDS011;4953;48.952;9.442;2022-08-27T13:29:22;39.50;;;27.60;;
9827;SDS011;4953;48.952;9.442;2022-08-27T13:31:51;33.43;;;24.67;;
9827;SDS011;4953;48.952;9.442;2022-08-27T13:34:19;24.63;;;19.20;;
9827;SDS011;4953;48.952;9.442;2022-08-27T13:36:52;23.23;;;17.73;;
9827;SDS011;4953;48.952;9.442;2022-08-27T13:39:23;19.47;;;15.07;;
9827;SDS011;4953;48.952;9.442;2022-08-27T13:41:50;17.83;;;15.17;;
9827;SDS011;4953;48.952;9.442;2022-08-27T13:44:24;21.77;;;17.77;;
9827;SDS011;4953;48.952;9.442;2022-08-27T13:46:58;17.17;;;15.47;;
9827;SDS011;4953;48.952;9.442;2022-08-27T13:49:28;19.73;;;16.10;;
9827;SDS011;4953;48.952;9.442;2022-08-27T13:51:59;18.30;;;16.10;;
9827;SDS011;4953;48.952;9.442;2022-08-27T13:54:41;21.43;;;17.17;;
9827;SDS011;4953;48.952;9.442;2022-08-27T13:57:09;16.83;;;14.33;;
9827;SDS011;4953;48.952;9.442;2022-08-27T13:59:38;24.27;;;19.17;;
9827;SDS011;4953;48.952;9.442;2022-08-27T14:02:17;24.20;;;18.93;;
9827;SDS011;4953;48.952;9.442;2022-08-27T14:04:49;19.50;;;17.47;;
9827;SDS011;4953;48.952;9.442;2022-08-27T14:07:29;22.30;;;18.27;;
9827;SDS011;4953;48.952;9.442;2022-08-27T14:10:00;27.53;;;19.73;;
9827;SDS011;4953;48.952;9.442;2022-08-27T14:12:30;24.33;;;17.90;;
9827;SDS011;4953;48.952;9.442;2022-08-27T14:15:11;22.70;;;19.20;;
9827;SDS011;4953;48.952;9.442;2022-08-27T14:17:49;24.33;;;20.60;;
9827;SDS011;4953;48.952;9.442;2022-08-27T14:20:16;22.33;;;18.93;;
9827;SDS011;4953;48.952;9.442;2022-08-27T14:22:44;27.67;;;20.10;;
9827;SDS011;4953;48.952;9.442;2022-08-27T14:25:12;26.47;;;20.77;;
9827;SDS011;4953;48.952;9.442;2022-08-27T14:27:40;26.50;;;20.27;;
9827;SDS011;4953;48.952;9.442;2022-08-27T14:30:08;21.40;;;18.70;;
9827;SDS011;4953;48.952;9.442;2022-08-27T14:32:37;18.90;;;14.87;;
9827;SDS011;4953;48.952;9.442;2022-08-27T14:35:07;17.90;;;14.30;;
9827;SDS011;4953;48.952;9.442;2022-08-27T14:37:37;16.80;;;13.07;;
9827;SDS011;4953;48.952;9.442;2022-08-27T14:40:05;19.40;;;16.07;;
9827;SDS011;4953;48.952;9.442;2022-08-27T14:42:33;20.60;;;17.07;;
9827;SDS011;4953;48.952;9.442;2022-08-27T14:45:00;20.77;;;15.10;;
9827;SDS011;4953;48.952;9.442;2022-08-27T14:47:26;18.60;;;14.77;;
9827;SDS011;4953;48.952;9.442;2022-08-27T14:49:55;17.33;;;14.80;;
9827;SDS011;4953;48.952;9.442;2022-08-27T14:52:24;23.70;;;17.57;;
9827;SDS011;4953;48.952;9.442;2022-08-27T14:54:50;23.27;;;18.10;;
9827;SDS011;4953;48.952;9.442;2022-08-27T14:57:17;18.30;;;16.33;;
9827;SDS011;4953;48.952;9.442;2022-08-27T14:59:45;22.27;;;16.57;;
9827;SDS011;4953;48.952;9.442;2022-08-27T15:02:12;20.47;;;17.23;;
9827;SDS011;4953;48.952;9.442;2022-08-27T15:04:39;19.03;;;16.40;;
9827;SDS011;4953;48.952;9.442;2022-08-27T15:07:06;18.50;;;16.50;;
9827;SDS011;4953;48.952;9.442;2022-08-27T15:09:37;17.20;;;14.53;;
9827;SDS011;4953;48.952;9.442;2022-08-27T15:12:04;22.00;;;17.80;;
9827;SDS011;4953;48.952;9.442;2022-08-27T15:14:32;24.00;;;19.47;;
9827;SDS011;4953;48.952;9.442;2022-08-27T15:17:01;21.30;;;17.03;;
9827;SDS011;4953;48.952;9.442;2022-08-27T15:19:29;25.53;;;20.80;;
9827;SDS011;4953;48.952;9.442;2022-08-27T15:21:59;21.27;;;18.50;;
9827;SDS011;4953;48.952;9.442;2022-08-27T15:24:32;27.87;;;19.77;;
9827;SDS011;4953;48.952;9.442;2022-08-27T15:27:06;26.50;;;21.90;;
9827;SDS011;4953;48.952;9.442;2022-08-27T15:29:33;33.80;;;23.30;;
9827;SDS011;4953;48.952;9.442;2022-08-27T15:32:00;31.70;;;21.60;;
9827;SDS011;4953;48.952;9.442;2022-08-27T15:34:27;29.27;;;22.00;;
9827;SDS011;4953;48.952;9.442;2022-08-27T15:36:57;31.30;;;24.70;;
9827;SDS011;4953;48.952;9.442;2022-08-27T15:39:24;35.17;;;26.30;;
9827;SDS011;4953;48.952;9.442;2022-08-27T15:41:52;33.57;;;27.60;;
9827;SDS011;4953;48.952;9.442;2022-08-27T15:44:19;33.50;;;28.67;;
9827;SDS011;4953;48.952;9.442;2022-08-27T15:46:45;43.10;;;32.30;;
9827;SDS011;4953;48.952;9.442;2022-08-27T15:49:14;32.23;;;27.27;;
9827;SDS011;4953;48.952;9.442;2022-08-27T15:51:41;37.90;;;28.60;;
9827;SDS011;4953;48.952;9.442;2022-08-27T15:54:10;38.73;;;30.70;;
9827;SDS011;4953;48.952;9.442;2022-08-27T15:56:37;28.73;;;25.10;;
9827;SDS011;4953;48.952;9.442;2022-08-27T15:59:06;40.93;;;29.90;;
9827;SDS011;4953;48.952;9.442;2022-08-27T16:01:34;31.83;;;26.10;;
9827;SDS011;4953;48.952;9.442;2022-08-27T16:04:03;37.23;;;26.23;;
9827;SDS011;4953;48.952;9.442;2022-08-27T16:06:31;29.07;;;25.03;;
9827;SDS011;4953;48.952;9.442;2022-08-27T16:08:59;40.43;;;27.67;;
9827;SDS011;4953;48.952;9.442;2022-08-27T16:11:26;32.83;;;27.53;;
9827;SDS011;4953;48.952;9.442;2022-08-27T16:13:53;32.50;;;27.60;;
9827;SDS011;4953;48.952;9.442;2022-08-27T16:16:22;32.47;;;25.90;;
9827;SDS011;4953;48.952;9.442;2022-08-27T16:18:51;33.97;;;26.87;;
9827;SDS011;4953;48.952;9.442;2022-08-27T16:21:18;32.97;;;27.00;;
9827;SDS011;4953;48.952;9.442;2022-08-27T16:23:45;29.80;;;23.33;;
9827;SDS011;4953;48.952;9.442;2022-08-27T16:26:12;30.57;;;25.03;;
9827;SDS011;4953;48.952;9.442;2022-08-27T16:28:40;26.63;;;23.20;;
9827;SDS011;4953;48.952;9.442;2022-08-27T16:31:08;31.00;;;24.50;;
9827;SDS011;4953;48.952;9.442;2022-08-27T16:33:38;27.43;;;24.47;;
9827;SDS011;4953;48.952;9.442;2022-08-27T16:36:06;26.80;;;23.23;;
9827;SDS011;4953;48.952;9.442;2022-08-27T16:38:34;30.47;;;23.40;;
9827;SDS011;4953;48.952;9.442;2022-08-27T16:41:02;25.00;;;20.37;;
9827;SDS011;4953;48.952;9.442;2022-08-27T16:43:29;24.33;;;20.40;;
9827;SDS011;4953;48.952;9.442;2022-08-27T16:45:57;25.87;;;18.83;;
9827;SDS011;4953;48.952;9.442;2022-08-27T16:48:27;25.20;;;19.50;;
9827;SDS011;4953;48.952;9.442;2022-08-27T16:51:17;24.83;;;21.90;;
9827;SDS011;4953;48.952;9.442;2022-08-27T16:53:46;24.67;;;21.60;;
9827;SDS011;4953;48.952;9.442;2022-08-27T16:56:14;24.90;;;21.13;;
9827;SDS011;4953;48.952;9.442;2022-08-27T16:58:42;25.03;;;21.60;;
9827;SDS011;4953;48.952;9.442;2022-08-27T17:01:10;27.30;;;23.47;;
9827;SDS011;4953;48.952;9.442;2022-08-27T17:03:40;32.30;;;22.60;;
9827;SDS011;4953;48.952;9.442;2022-08-27T17:06:12;27.70;;;24.70;;
9827;SDS011;4953;48.952;9.442;2022-08-27T17:08:41;32.87;;;24.90;;
9827;SDS011;4953;48.952;9.442;2022-08-27T17:11:09;35.03;;;25.20;;
9827;SDS011;4953;48.952;9.442;2022-08-27T17:13:37;38.90;;;27.20;;
9827;SDS011;4953;48.952;9.442;2022-08-27T17:16:05;31.97;;;25.60;;
9827;SDS011;4953;48.952;9.442;2022-08-27T17:18:32;30.17;;;26.00;;
9827;SDS011;4953;48.952;9.442;2022-08-27T17:20:59;35.43;;;25.10;;
9827;SDS011;4953;48.952;9.442;2022-08-27T17:23:30;28.70;;;24.30;;
9827;SDS011;4953;48.952;9.442;2022-08-27T17:26:02;30.33;;;23.07;;
9827;SDS011;4953;48.952;9.442;2022-08-27T17:28:30;27.33;;;24.13;;
9827;SDS011;4953;48.952;9.442;2022-08-27T17:30:57;28.63;;;22.10;;
9827;SDS011;4953;48.952;9.442;2022-08-27T17:33:27;27.13;;;21.87;;
9827;SDS011;4953;48.952;9.442;2022-08-27T17:35:57;27.20;;;22.73;;
9827;SDS011;4953;48.952;9.442;2022-08-27T17:38:24;31.93;;;23.93;;
9827;SDS011;4953;48.952;9.442;2022-08-27T17:40:52;25.97;;;21.93;;
9827;SDS011;4953;48.952;9.442;2022-08-27T17:43:20;30.40;;;21.90;;
9827;SDS011;4953;48.952;9.442;2022-08-27T17:45:47;30.40;;;22.70;;
9827;SDS011;4953;48.952;9.442;2022-08-27T17:48:14;27.23;;;20.97;;
9827;SDS011;4953;48.952;9.442;2022-08-27T17:50:41;27.07;;;22.23;;
9827;SDS011;4953;48.952;9.442;2022-08-27T17:53:08;29.30;;;21.83;;
9827;SDS011;4953;48.952;9.442;2022-08-27T17:55:35;24.80;;;22.07;;
9827;SDS011;4953;48.952;9.442;2022-08-27T17:58:05;28.97;;;21.37;;
9827;SDS011;4953;48.952;9.442;2022-08-27T18:00:32;27.00;;;20.73;;
9827;SDS011;4953;48.952;9.442;2022-08-27T18:02:59;25.00;;;20.00;;
9827;SDS011;4953;48.952;9.442;2022-08-27T18:05:26;25.30;;;19.67;;
9827;SDS011;4953;48.952;9.442;2022-08-27T18:07:53;25.53;;;19.77;;
9827;SDS011;4953;48.952;9.442;2022-08-27T18:10:22;24.03;;;19.43;;
9827;SDS011;4953;48.952;9.442;2022-08-27T18:12:53;22.97;;;20.17;;
9827;SDS011;4953;48.952;9.442;2022-08-27T18:15:22;28.67;;;19.93;;
9827;SDS011;4953;48.952;9.442;2022-08-27T18:17:53;21.50;;;19.20;;
9827;SDS011;4953;48.952;9.442;2022-08-27T18:20:22;23.80;;;19.00;;
9827;SDS011;4953;48.952;9.442;2022-08-27T18:22:51;24.77;;;19.77;;
9827;SDS011;4953;48.952;9.442;2022-08-27T18:25:19;22.40;;;19.50;;
9827;SDS011;4953;48.952;9.442;2022-08-27T18:27:50;28.17;;;18.27;;
9827;SDS011;4953;48.952;9.442;2022-08-27T18:30:19;23.37;;;19.43;;
9827;SDS011;4953;48.952;9.442;2022-08-27T18:32:47;22.97;;;18.63;;
9827;SDS011;4953;48.952;9.442;2022-08-27T18:35:17;21.70;;;18.77;;
9827;SDS011;4953;48.952;9.442;2022-08-27T18:37:46;22.73;;;19.53;;
9827;SDS011;4953;48.952;9.442;2022-08-27T18:40:13;24.50;;;19.63;;
9827;SDS011;4953;48.952;9.442;2022-08-27T18:42:42;25.93;;;20.03;;
9827;SDS011;4953;48.952;9.442;2022-08-27T18:45:11;25.70;;;18.70;;
9827;SDS011;4953;48.952;9.442;2022-08-27T18:47:40;25.20;;;19.77;;
9827;SDS011;4953;48.952;9.442;2022-08-27T18:50:10;21.00;;;18.67;;
9827;SDS011;4953;48.952;9.442;2022-08-27T18:52:38;24.23;;;19.07;;
9827;SDS011;4953;48.952;9.442;2022-08-27T18:55:08;20.70;;;17.93;;
9827;SDS011;4953;48.952;9.442;2022-08-27T18:57:37;21.00;;;17.87;;
9827;SDS011;4953;48.952;9.442;2022-08-27T19:00:04;21.90;;;19.57;;
9827;SDS011;4953;48.952;9.442;2022-08-27T19:02:33;20.10;;;17.73;;
9827;SDS011;4953;48.952;9.442;2022-08-27T19:05:00;18.83;;;16.20;;
9827;SDS011;4953;48.952;9.442;2022-08-27T19:07:30;19.20;;;17.23;;
9827;SDS011;4953;48.952;9.442;2022-08-27T19:09:57;18.50;;;16.50;;
9827;SDS011;4953;48.952;9.442;2022-08-27T19:12:24;19.10;;;15.33;;